Time;durP1;ratioP1;P1;durP2;ratioP2;P2;SDS_P1;SDS_P2;PMS_P1;PMS_P2;Temp;Humidity;BMP_temperature;BMP_pressure;BME280_temperature;BME280_humidity;BME280_pressure;Samples;Min_cycle;Max_cycle;Signal;HPM_P1;HPM_P2
2021/05/17 00:00:09;;;;;;;0.80;0.80;;;;;;;;;;5063870;28;20693;-70
2021/05/17 00:02:35;;;;;;;0.60;0.60;;;;;;;;;;5057869;28;20665;-70
2021/05/17 00:05:00;;;;;;;2.23;0.83;;;;;;;;;;5061511;28;20181;-71
2021/05/17 00:07:25;;;;;;;1.97;0.57;;;;;;;;;;5057986;28;20260;-72
2021/05/17 00:09:50;;;;;;;0.73;0.60;;;;;;;;;;5060651;28;20169;-71
2021/05/17 00:12:16;;;;;;;0.73;0.60;;;;;;;;;;5056641;28;20281;-70
2021/05/17 00:14:41;;;;;;;0.70;0.50;;;;;;;;;;5053560;28;20178;-70
2021/05/17 00:17:07;;;;;;;4.83;2.30;;;;;;;;;;5061650;28;20589;-70
2021/05/17 00:19:32;;;;;;;0.80;0.80;;;;;;;;;;5063413;28;20230;-70
2021/05/17 00:21:58;;;;;;;0.70;0.70;;;;;;;;;;5056662;28;20197;-70
2021/05/17 00:24:23;;;;;;;0.60;0.60;;;;;;;;;;5054975;28;20203;-71
2021/05/17 00:26:48;;;;;;;1.23;0.90;;;;;;;;;;5055926;28;20577;-70
2021/05/17 00:29:14;;;;;;;0.50;0.50;;;;;;;;;;5057316;28;20181;-70
2021/05/17 00:31:40;;;;;;;0.77;0.47;;;;;;;;;;5058749;28;20180;-70
2021/05/17 00:34:07;;;;;;;1.03;0.70;;;;;;;;;;5055899;28;20272;-70
2021/05/17 00:36:32;;;;;;;0.70;0.70;;;;;;;;;;5061166;28;20185;-70
2021/05/17 00:38:58;;;;;;;0.47;0.40;;;;;;;;;;5059802;28;20187;-71
2021/05/17 00:41:24;;;;;;;1.57;0.90;;;;;;;;;;5056386;28;20557;-71
2021/05/17 00:43:51;;;;;;;1.27;0.70;;;;;;;;;;5061656;28;20209;-69
2021/05/17 00:46:16;;;;;;;1.27;0.83;;;;;;;;;;5054115;28;20269;-71
2021/05/17 00:48:42;;;;;;;0.93;0.77;;;;;;;;;;5058132;28;20176;-71
2021/05/17 00:51:08;;;;;;;2.00;0.90;;;;;;;;;;5059267;28;20173;-70
2021/05/17 00:53:34;;;;;;;1.53;0.80;;;;;;;;;;5058841;28;20266;-70
2021/05/17 00:56:00;;;;;;;1.47;1.00;;;;;;;;;;5062654;28;20196;-71
2021/05/17 00:58:25;;;;;;;1.60;0.90;;;;;;;;;;5058969;28;20177;-71
2021/05/17 01:00:50;;;;;;;3.03;1.27;;;;;;;;;;5062905;28;20177;-71
2021/05/17 01:03:16;;;;;;;2.20;1.23;;;;;;;;;;5052936;28;20205;-71
2021/05/17 01:05:41;;;;;;;1.70;1.50;;;;;;;;;;5056596;28;20199;-71
2021/05/17 01:08:08;;;;;;;2.00;1.70;;;;;;;;;;5060307;28;20173;-71
2021/05/17 01:10:35;;;;;;;5.00;2.17;;;;;;;;;;5056270;28;20178;-70
2021/05/17 01:13:02;;;;;;;2.67;1.80;;;;;;;;;;5052059;28;20205;-71
2021/05/17 01:15:27;;;;;;;1.90;1.70;;;;;;;;;;5059425;28;20254;-71
2021/05/17 01:17:53;;;;;;;2.43;2.23;;;;;;;;;;5067526;28;20185;-71
2021/05/17 01:20:22;;;;;;;3.27;2.53;;;;;;;;;;5061279;28;20697;-70
2021/05/17 01:25:39;;;;;;;3.70;2.60;;;;;;;;;;5060582;28;20188;-70
2021/05/17 01:28:06;;;;;;;3.40;2.60;;;;;;;;;;5055099;28;20185;-71
2021/05/17 01:30:31;;;;;;;5.33;3.07;;;;;;;;;;5055940;28;20181;-70
2021/05/17 01:32:56;;;;;;;5.93;3.93;;;;;;;;;;5056289;28;20228;-70
2021/05/17 01:35:22;;;;;;;5.33;3.40;;;;;;;;;;5065827;28;20617;-70
2021/05/17 01:37:48;;;;;;;4.77;3.20;;;;;;;;;;5057546;28;20300;-70
2021/05/17 01:40:18;;;;;;;3.13;2.83;;;;;;;;;;5065553;28;20192;-71
2021/05/17 01:42:44;;;;;;;6.10;3.80;;;;;;;;;;5057897;28;20277;-70
2021/05/17 01:45:10;;;;;;;4.83;3.70;;;;;;;;;;5055881;28;20778;-71
2021/05/17 01:47:37;;;;;;;4.40;3.73;;;;;;;;;;5063198;28;21267;-70
2021/05/17 01:50:03;;;;;;;5.90;3.80;;;;;;;;;;5058879;28;20186;-71
2021/05/17 01:52:28;;;;;;;5.47;4.17;;;;;;;;;;5056206;28;20197;-71
2021/05/17 01:54:54;;;;;;;6.33;4.30;;;;;;;;;;5059930;28;20660;-71
2021/05/17 01:57:20;;;;;;;4.40;4.00;;;;;;;;;;5062724;28;20177;-71
2021/05/17 01:59:45;;;;;;;5.93;5.27;;;;;;;;;;5063736;28;20555;-71
2021/05/17 02:02:12;;;;;;;5.37;4.47;;;;;;;;;;5055824;28;20201;-70
2021/05/17 02:04:37;;;;;;;6.27;4.80;;;;;;;;;;5065461;28;20284;-70
2021/05/17 02:07:02;;;;;;;5.83;4.93;;;;;;;;;;5061341;28;20588;-71
2021/05/17 02:09:30;;;;;;;5.70;4.97;;;;;;;;;;5061479;28;20231;-70
2021/05/17 02:11:56;;;;;;;8.90;5.83;;;;;;;;;;5054151;28;20678;-70
2021/05/17 02:14:22;;;;;;;7.17;5.77;;;;;;;;;;5062200;28;20184;-71
2021/05/17 02:16:48;;;;;;;8.27;5.63;;;;;;;;;;5062764;28;20185;-70
2021/05/17 02:19:13;;;;;;;7.27;6.57;;;;;;;;;;5065377;28;20182;-71
2021/05/17 02:21:38;;;;;;;8.47;6.27;;;;;;;;;;5058155;28;20260;-71
2021/05/17 02:24:07;;;;;;;7.20;5.97;;;;;;;;;;5062586;28;20186;-71
2021/05/17 02:26:33;;;;;;;8.77;6.50;;;;;;;;;;5056455;28;20186;-71
2021/05/17 02:28:58;;;;;;;10.40;7.03;;;;;;;;;;5066261;28;20180;-70
2021/05/17 02:31:23;;;;;;;10.77;7.37;;;;;;;;;;5060885;28;20230;-70
2021/05/17 02:33:48;;;;;;;9.80;7.00;;;;;;;;;;5056333;28;20181;-70
2021/05/17 02:36:14;;;;;;;8.70;6.60;;;;;;;;;;5060070;28;20205;-71
2021/05/17 02:38:39;;;;;;;7.97;7.03;;;;;;;;;;5054269;28;20177;-69
2021/05/17 02:41:05;;;;;;;7.97;7.17;;;;;;;;;;5062350;28;20182;-71
2021/05/17 02:43:31;;;;;;;8.50;6.60;;;;;;;;;;5060066;28;20196;-71
2021/05/17 02:45:57;;;;;;;8.23;6.70;;;;;;;;;;5059151;28;20196;-71
2021/05/17 02:48:28;;;;;;;7.33;6.57;;;;;;;;;;5058926;28;20181;-71
2021/05/17 02:50:53;;;;;;;8.03;7.23;;;;;;;;;;5057753;28;20185;-71
2021/05/17 02:53:27;;;;;;;9.67;6.73;;;;;;;;;;5060251;28;20196;-71
2021/05/17 02:55:57;;;;;;;9.33;7.83;;;;;;;;;;5058615;28;20189;-71
2021/05/17 02:58:23;;;;;;;8.30;7.00;;;;;;;;;;5062452;28;20223;-70
2021/05/17 03:01:03;;;;;;;8.03;7.23;;;;;;;;;;5056271;28;20247;-71
2021/05/17 03:03:30;;;;;;;10.97;7.43;;;;;;;;;;5055189;28;20201;-70
2021/05/17 03:06:02;;;;;;;7.97;6.70;;;;;;;;;;5065244;28;20219;-70
2021/05/17 03:08:29;;;;;;;8.50;6.63;;;;;;;;;;5056672;28;20169;-71
2021/05/17 03:10:55;;;;;;;9.77;6.97;;;;;;;;;;5059526;28;20174;-69
2021/05/17 03:13:22;;;;;;;8.67;7.03;;;;;;;;;;5057586;28;20678;-69
2021/05/17 03:15:47;;;;;;;9.73;6.83;;;;;;;;;;5058361;28;20174;-68
2021/05/17 03:18:12;;;;;;;9.50;6.90;;;;;;;;;;5061684;28;20173;-72
2021/05/17 03:20:38;;;;;;;9.07;6.33;;;;;;;;;;5065077;28;20654;-70
2021/05/17 03:23:07;;;;;;;8.10;6.93;;;;;;;;;;5060912;28;20201;-70
2021/05/17 03:25:33;;;;;;;7.80;7.00;;;;;;;;;;5061037;28;20173;-72
2021/05/17 03:27:58;;;;;;;8.13;6.80;;;;;;;;;;5066571;28;20215;-68
2021/05/17 03:30:24;;;;;;;8.53;6.87;;;;;;;;;;5056512;28;20194;-70
2021/05/17 03:32:49;;;;;;;10.43;6.83;;;;;;;;;;5060714;28;20189;-69
2021/05/17 03:35:14;;;;;;;9.80;6.80;;;;;;;;;;5058987;28;20185;-72
2021/05/17 03:37:40;;;;;;;7.23;5.83;;;;;;;;;;5057910;28;20177;-69
2021/05/17 03:40:05;;;;;;;9.83;7.03;;;;;;;;;;5059753;28;20634;-70
2021/05/17 03:42:30;;;;;;;9.60;6.87;;;;;;;;;;5060137;28;20194;-72
2021/05/17 03:44:56;;;;;;;8.27;6.17;;;;;;;;;;5064767;28;20192;-69
2021/05/17 03:47:21;;;;;;;7.10;6.00;;;;;;;;;;5061874;28;20665;-72
2021/05/17 03:49:46;;;;;;;10.03;5.67;;;;;;;;;;5063214;28;20173;-70
2021/05/17 03:52:11;;;;;;;6.43;5.50;;;;;;;;;;5054514;28;20193;-70
2021/05/17 03:54:37;;;;;;;8.67;5.43;;;;;;;;;;5061623;28;20169;-70
2021/05/17 03:57:04;;;;;;;6.87;5.40;;;;;;;;;;5063823;28;20260;-69
2021/05/17 03:59:29;;;;;;;8.00;5.40;;;;;;;;;;5055471;28;20223;-69
2021/05/17 04:01:54;;;;;;;6.23;5.57;;;;;;;;;;5060976;28;20200;-70
2021/05/17 04:04:22;;;;;;;6.70;5.27;;;;;;;;;;5053958;28;20201;-70
2021/05/17 04:07:44;;;;;;;10.27;5.43;;;;;;;;;;5059853;28;20256;-70
2021/05/17 04:14:54;;;;;;;8.30;6.03;;;;;;;;;;5057524;28;20246;-70
2021/05/17 04:17:19;;;;;;;6.20;5.33;;;;;;;;;;5058704;28;20228;-72
2021/05/17 04:19:44;;;;;;;8.53;6.03;;;;;;;;;;5061328;28;20193;-71
2021/05/17 04:22:09;;;;;;;7.33;6.50;;;;;;;;;;5056797;28;20239;-72
2021/05/17 04:24:34;;;;;;;7.93;6.77;;;;;;;;;;5061254;28;20722;-71
2021/05/17 04:27:00;;;;;;;7.43;6.47;;;;;;;;;;5059835;28;20170;-72
2021/05/17 04:29:26;;;;;;;10.97;6.63;;;;;;;;;;5061152;28;20564;-72
2021/05/17 04:31:52;;;;;;;8.57;6.57;;;;;;;;;;5057243;28;20197;-71
2021/05/17 04:34:17;;;;;;;7.23;6.53;;;;;;;;;;5063450;28;20606;-72
2021/05/17 04:36:42;;;;;;;7.23;5.63;;;;;;;;;;5058660;28;20197;-71
2021/05/17 04:39:08;;;;;;;7.37;6.17;;;;;;;;;;5064077;28;20189;-71
2021/05/17 04:41:33;;;;;;;7.80;6.20;;;;;;;;;;5061806;28;20629;-72
2021/05/17 04:43:58;;;;;;;7.97;6.17;;;;;;;;;;5064302;28;20722;-71
2021/05/17 04:46:23;;;;;;;6.80;6.03;;;;;;;;;;5060573;28;20174;-70
2021/05/17 04:48:49;;;;;;;10.07;6.17;;;;;;;;;;5060293;28;20173;-70
2021/05/17 04:51:18;;;;;;;11.17;6.17;;;;;;;;;;5059139;28;20176;-70
2021/05/17 04:53:43;;;;;;;8.67;6.50;;;;;;;;;;5065249;28;20227;-70
2021/05/17 04:56:08;;;;;;;9.93;7.20;;;;;;;;;;5059232;28;20652;-70
2021/05/17 04:58:34;;;;;;;8.80;6.53;;;;;;;;;;5064255;28;20183;-71
2021/05/17 05:00:59;;;;;;;9.27;6.40;;;;;;;;;;5059173;28;20765;-69
2021/05/17 05:03:24;;;;;;;9.97;7.07;;;;;;;;;;5064435;28;22078;-71
2021/05/17 05:05:49;;;;;;;11.03;7.67;;;;;;;;;;5057185;28;20193;-71
2021/05/17 05:08:15;;;;;;;10.47;6.57;;;;;;;;;;5061717;28;20195;-71
2021/05/17 05:10:40;;;;;;;11.47;6.57;;;;;;;;;;5065384;28;20182;-70
2021/05/17 05:13:05;;;;;;;11.63;6.90;;;;;;;;;;5062323;28;20675;-70
2021/05/17 05:15:31;;;;;;;12.40;6.33;;;;;;;;;;5061773;28;20168;-71
2021/05/17 05:17:56;;;;;;;11.57;6.07;;;;;;;;;;5058686;28;20704;-72
2021/05/17 05:20:21;;;;;;;9.73;5.80;;;;;;;;;;5064956;28;20197;-71
2021/05/17 05:22:46;;;;;;;10.10;6.63;;;;;;;;;;5056610;28;20624;-70
2021/05/17 05:25:12;;;;;;;10.13;6.43;;;;;;;;;;5071053;28;20173;-71
2021/05/17 05:32:35;;;;;;;12.20;6.80;;;;;;;;;;5067134;28;20208;-71
2021/05/17 05:35:00;;;;;;;8.83;6.67;;;;;;;;;;5065928;28;20189;-72
2021/05/17 05:37:25;;;;;;;10.23;6.53;;;;;;;;;;5073765;28;20188;-72
2021/05/17 05:39:50;;;;;;;11.13;7.27;;;;;;;;;;5070386;28;20181;-72
2021/05/17 05:42:15;;;;;;;12.37;7.00;;;;;;;;;;5063520;28;20658;-70
2021/05/17 05:44:45;;;;;;;10.87;6.57;;;;;;;;;;5064438;28;20874;-72
2021/05/17 05:47:15;;;;;;;12.57;6.90;;;;;;;;;;5074107;28;20296;-72
2021/05/17 05:49:40;;;;;;;12.50;6.80;;;;;;;;;;5071866;28;20177;-72
2021/05/17 05:52:05;;;;;;;15.70;7.20;;;;;;;;;;5061321;28;20368;-72
2021/05/17 05:54:31;;;;;;;10.63;7.30;;;;;;;;;;5063105;28;20192;-71
2021/05/17 05:56:56;;;;;;;12.10;7.40;;;;;;;;;;5071906;28;20185;-71
2021/05/17 05:59:21;;;;;;;12.80;6.43;;;;;;;;;;5064309;28;20180;-71
2021/05/17 06:01:46;;;;;;;13.27;7.93;;;;;;;;;;5066393;28;20653;-72
2021/05/17 06:04:11;;;;;;;10.70;7.17;;;;;;;;;;5072465;28;20199;-71
2021/05/17 06:06:36;;;;;;;9.53;6.93;;;;;;;;;;5069643;28;20158;-72
2021/05/17 06:09:03;;;;;;;14.90;9.37;;;;;;;;;;5068871;28;20177;-72
2021/05/17 06:11:28;;;;;;;10.33;6.90;;;;;;;;;;5068528;28;20200;-71
2021/05/17 06:13:53;;;;;;;11.87;10.17;;;;;;;;;;5061559;28;20205;-72
2021/05/17 06:16:19;;;;;;;14.03;11.63;;;;;;;;;;5059451;28;20173;-72
2021/05/17 06:18:44;;;;;;;22.27;13.20;;;;;;;;;;5064658;28;20177;-73
2021/05/17 06:21:09;;;;;;;21.77;14.00;;;;;;;;;;5056961;28;20665;-72
2021/05/17 06:23:35;;;;;;;14.43;12.23;;;;;;;;;;5066211;28;20212;-72
2021/05/17 06:26:00;;;;;;;13.17;10.90;;;;;;;;;;5061040;28;20181;-72
2021/05/17 06:28:25;;;;;;;12.10;9.60;;;;;;;;;;5064545;28;20173;-73
2021/05/17 06:30:56;;;;;;;14.60;9.97;;;;;;;;;;5055737;28;20169;-73
2021/05/17 06:33:21;;;;;;;11.50;8.57;;;;;;;;;;5059865;28;20232;-72
2021/05/17 06:35:49;;;;;;;13.03;9.67;;;;;;;;;;5062143;28;20201;-72
2021/05/17 06:38:15;;;;;;;11.40;8.67;;;;;;;;;;5061371;28;20185;-73
2021/05/17 06:40:40;;;;;;;10.63;8.33;;;;;;;;;;5062489;28;20177;-71
2021/05/17 06:43:05;;;;;;;13.90;8.33;;;;;;;;;;5055985;28;20209;-71
2021/05/17 06:45:31;;;;;;;12.03;8.43;;;;;;;;;;5063410;28;20279;-71
2021/05/17 06:47:56;;;;;;;9.23;7.40;;;;;;;;;;5058578;28;20249;-71
2021/05/17 06:50:22;;;;;;;8.67;7.77;;;;;;;;;;5061424;28;20169;-71
2021/05/17 06:52:47;;;;;;;8.60;7.33;;;;;;;;;;5064075;28;20193;-71
2021/05/17 06:55:19;;;;;;;10.60;7.87;;;;;;;;;;5058546;28;20177;-71
2021/05/17 07:00:31;;;;;;;10.80;7.97;;;;;;;;;;5061755;28;20195;-71
2021/05/17 07:02:58;;;;;;;9.50;8.40;;;;;;;;;;5058889;28;20706;-71
2021/05/17 07:05:24;;;;;;;17.73;10.47;;;;;;;;;;5060953;28;20199;-70
2021/05/17 07:13:10;;;;;;;13.27;8.13;;;;;;;;;;5068502;28;20227;-71
2021/05/17 07:15:36;;;;;;;12.17;7.23;;;;;;;;;;5058274;28;20182;-71
2021/05/17 07:18:01;;;;;;;12.27;7.50;;;;;;;;;;5071707;28;20181;-71
2021/05/17 07:20:36;;;;;;;9.97;6.60;;;;;;;;;;5060952;28;20197;-71
2021/05/17 07:25:45;;;;;;;10.23;6.50;;;;;;;;;;5059261;28;20176;-70
2021/05/17 07:28:10;;;;;;;9.60;6.97;;;;;;;;;;5055135;28;20593;-71
2021/05/17 07:30:36;;;;;;;9.00;7.33;;;;;;;;;;5062734;28;20548;-71
2021/05/17 07:33:01;;;;;;;9.17;7.90;;;;;;;;;;5058994;28;20232;-70
2021/05/17 07:35:26;;;;;;;10.43;6.93;;;;;;;;;;5056357;28;20173;-71
2021/05/17 07:37:52;;;;;;;9.43;7.00;;;;;;;;;;5062762;28;20185;-71
2021/05/17 07:40:17;;;;;;;14.47;8.93;;;;;;;;;;5064948;28;20758;-71
2021/05/17 07:42:42;;;;;;;7.67;6.87;;;;;;;;;;5056288;28;20698;-70
2021/05/17 07:45:08;;;;;;;9.97;6.63;;;;;;;;;;5061175;28;20201;-70
2021/05/17 07:47:33;;;;;;;9.97;6.73;;;;;;;;;;5061716;28;20631;-72
2021/05/17 07:49:58;;;;;;;8.73;6.70;;;;;;;;;;5061051;28;20201;-70
2021/05/17 07:52:23;;;;;;;8.03;6.57;;;;;;;;;;5059230;28;20197;-72
2021/05/17 07:54:49;;;;;;;8.10;7.23;;;;;;;;;;5057736;28;20184;-70
2021/05/17 07:57:14;;;;;;;7.73;6.73;;;;;;;;;;5058207;28;20181;-71
2021/05/17 07:59:40;;;;;;;7.87;6.57;;;;;;;;;;5061471;28;20998;-72
2021/05/17 08:02:05;;;;;;;8.90;7.38;;;;;;;;;;5057869;28;20220;-69
2021/05/17 08:04:30;;;;;;;7.53;6.40;;;;;;;;;;5058722;28;20196;-69
2021/05/17 08:06:55;;;;;;;7.72;5.60;;;;;;;;;;5060046;28;20247;-69
2021/05/17 08:09:21;;;;;;;7.20;6.50;;;;;;;;;;5057911;28;20167;-72
2021/05/17 08:11:46;;;;;;;5.28;4.80;;;;;;;;;;5059835;28;20220;-70
2021/05/17 08:14:12;;;;;;;5.95;4.60;;;;;;;;;;5051568;28;20186;-70
2021/05/17 08:16:37;;;;;;;5.60;4.43;;;;;;;;;;5055589;28;20251;-71
2021/05/17 08:19:03;;;;;;;5.22;4.82;;;;;;;;;;5064480;28;20264;-69
2021/05/17 08:21:28;;;;;;;6.80;5.20;;;;;;;;;;5060793;28;20174;-70
2021/05/17 08:23:56;;;;;;;4.72;4.32;;;;;;;;;;5060780;28;20205;-69
2021/05/17 08:26:21;;;;;;;5.00;4.55;;;;;;;;;;5063613;28;20235;-70
2021/05/17 08:28:46;;;;;;;7.38;5.30;;;;;;;;;;5065240;28;20591;-70
2021/05/17 08:31:14;;;;;;;6.30;4.60;;;;;;;;;;5059908;28;20177;-69
2021/05/17 08:33:39;;;;;;;7.18;4.90;;;;;;;;;;5062028;28;20227;-69
2021/05/17 08:36:05;;;;;;;8.30;4.75;;;;;;;;;;5065790;28;20208;-70
2021/05/17 08:38:30;;;;;;;5.50;4.72;;;;;;;;;;5057746;28;20185;-70
2021/05/17 08:40:55;;;;;;;6.72;5.50;;;;;;;;;;5061230;28;20209;-73
2021/05/17 08:43:21;;;;;;;5.57;4.65;;;;;;;;;;5060451;28;20753;-71
2021/05/17 08:45:46;;;;;;;5.35;4.55;;;;;;;;;;5064659;28;20679;-69
2021/05/17 08:48:12;;;;;;;8.60;4.72;;;;;;;;;;5058671;28;20212;-69
2021/05/17 08:50:38;;;;;;;5.40;4.55;;;;;;;;;;5059314;28;20177;-70
2021/05/17 08:53:03;;;;;;;5.53;4.75;;;;;;;;;;5060550;28;20278;-69
2021/05/17 08:55:29;;;;;;;5.55;4.88;;;;;;;;;;5060666;28;20199;-70
2021/05/17 08:57:54;;;;;;;5.78;5.03;;;;;;;;;;5059199;28;20703;-69
2021/05/17 09:00:20;;;;;;;5.43;4.57;;;;;;;;;;5056939;28;20857;-69
2021/05/17 09:02:46;;;;;;;5.50;4.80;;;;;;;;;;5060086;28;20208;-69
2021/05/17 09:05:16;;;;;;;6.45;5.85;;;;;;;;;;5052526;28;20206;-69
2021/05/17 09:07:52;;;;;;;5.00;4.60;;;;;;;;;;5054791;28;20264;-69
2021/05/17 09:10:18;;;;;;;6.05;4.60;;;;;;;;;;5060011;28;20663;-70
2021/05/17 09:13:02;;;;;;;5.85;4.63;;;;;;;;;;5054501;28;20197;-68
2021/05/17 09:15:28;;;;;;;4.75;4.35;;;;;;;;;;5055282;28;20180;-72
2021/05/17 09:17:57;;;;;;;6.03;5.20;;;;;;;;;;5059015;28;20228;-69
2021/05/17 09:20:23;;;;;;;5.63;5.03;;;;;;;;;;5055511;28;20223;-70
2021/05/17 09:23:03;;;;;;;6.35;4.47;;;;;;;;;;5059740;28;20212;-69
2021/05/17 09:25:28;;;;;;;5.30;4.57;;;;;;;;;;5058731;28;20731;-67
2021/05/17 09:27:59;;;;;;;5.37;4.87;;;;;;;;;;5054589;28;20178;-69
2021/05/17 09:30:24;;;;;;;6.13;4.72;;;;;;;;;;5060380;28;20482;-69
2021/05/17 09:32:49;;;;;;;5.43;4.90;;;;;;;;;;5051294;28;20197;-68
2021/05/17 09:35:19;;;;;;;5.70;4.93;;;;;;;;;;5055576;28;20228;-69
2021/05/17 09:37:45;;;;;;;8.48;5.50;;;;;;;;;;5057424;28;20461;-69
2021/05/17 09:40:20;;;;;;;5.57;5.10;;;;;;;;;;5064285;28;20650;-68
2021/05/17 09:42:57;;;;;;;5.40;4.68;;;;;;;;;;5057685;28;20205;-68
2021/05/17 09:45:28;;;;;;;5.15;4.65;;;;;;;;;;5059404;28;20197;-68
2021/05/17 09:47:54;;;;;;;4.32;3.92;;;;;;;;;;5051967;28;20575;-69
2021/05/17 09:50:19;;;;;;;5.43;4.07;;;;;;;;;;5061233;28;20165;-68
2021/05/17 09:52:45;;;;;;;5.50;4.53;;;;;;;;;;5057522;28;20666;-69
2021/05/17 09:55:10;;;;;;;3.30;3.10;;;;;;;;;;5052598;28;20442;-70
2021/05/17 09:57:39;;;;;;;3.53;3.22;;;;;;;;;;5061370;28;20180;-70
2021/05/17 10:00:12;;;;;;;3.22;3.03;;;;;;;;;;5066484;28;20177;-69
2021/05/17 10:02:39;;;;;;;4.35;3.88;;;;;;;;;;5066013;28;20231;-70
2021/05/17 10:05:23;;;;;;;3.90;3.53;;;;;;;;;;5065009;28;20198;-69
2021/05/17 10:07:58;;;;;;;4.20;3.90;;;;;;;;;;5057938;28;20169;-69
2021/05/17 10:10:24;;;;;;;5.03;3.88;;;;;;;;;;5063931;28;20172;-70
2021/05/17 10:12:50;;;;;;;4.88;4.20;;;;;;;;;;5062486;28;20276;-69
2021/05/17 10:15:16;;;;;;;4.38;3.88;;;;;;;;;;5058640;28;20189;-70
2021/05/17 10:17:41;;;;;;;3.95;3.63;;;;;;;;;;5063563;28;20169;-69
2021/05/17 10:20:08;;;;;;;3.67;3.33;;;;;;;;;;5066730;28;20176;-68
2021/05/17 10:22:34;;;;;;;4.78;3.92;;;;;;;;;;5060705;28;20270;-69
2021/05/17 10:25:01;;;;;;;3.80;3.42;;;;;;;;;;5061167;28;20212;-70
2021/05/17 10:27:27;;;;;;;4.22;3.67;;;;;;;;;;5057606;28;20177;-70
2021/05/17 10:29:57;;;;;;;5.53;3.70;;;;;;;;;;5062790;28;20177;-70
2021/05/17 10:32:38;;;;;;;3.20;3.00;;;;;;;;;;5061638;28;20204;-70
2021/05/17 10:35:10;;;;;;;4.50;2.65;;;;;;;;;;5063737;28;20846;-70
2021/05/17 10:37:37;;;;;;;3.05;2.78;;;;;;;;;;5066015;28;20215;-69
2021/05/17 10:40:04;;;;;;;3.20;2.67;;;;;;;;;;5061221;28;20662;-70
2021/05/17 10:42:42;;;;;;;5.60;3.33;;;;;;;;;;5058740;28;20680;-71
2021/05/17 10:48:12;;;;;;;3.40;3.10;;;;;;;;;;5062708;28;20231;-70
2021/05/17 10:50:38;;;;;;;3.65;3.13;;;;;;;;;;5068085;28;20613;-70
2021/05/17 10:53:03;;;;;;;3.72;3.42;;;;;;;;;;5059944;28;20284;-70
2021/05/17 10:55:29;;;;;;;4.93;4.22;;;;;;;;;;5066118;28;20642;-70
2021/05/17 10:58:06;;;;;;;4.63;4.18;;;;;;;;;;5062318;28;20189;-70
2021/05/17 11:00:34;;;;;;;4.40;3.88;;;;;;;;;;5058937;28;20661;-70
2021/05/17 11:03:18;;;;;;;4.40;4.00;;;;;;;;;;5057072;28;20194;-71
2021/05/17 11:05:44;;;;;;;4.22;3.83;;;;;;;;;;5057494;28;20169;-71
2021/05/17 11:08:10;;;;;;;5.40;4.90;;;;;;;;;;5067156;28;20550;-71
2021/05/17 11:10:39;;;;;;;5.03;4.32;;;;;;;;;;5060981;28;20177;-71
2021/05/17 11:13:06;;;;;;;7.13;4.70;;;;;;;;;;5056976;28;20247;-71
2021/05/17 11:15:41;;;;;;;6.30;5.60;;;;;;;;;;5057793;28;20184;-71
2021/05/17 11:18:06;;;;;;;6.80;5.28;;;;;;;;;;5063898;28;20173;-71
2021/05/17 11:20:37;;;;;;;6.38;5.82;;;;;;;;;;5065911;28;20188;-71
2021/05/17 11:23:03;;;;;;;5.88;5.05;;;;;;;;;;5060674;28;20451;-70
2021/05/17 11:25:49;;;;;;;6.50;5.45;;;;;;;;;;5061179;28;20188;-72
2021/05/17 11:28:18;;;;;;;7.72;5.80;;;;;;;;;;5069649;28;20189;-71
2021/05/17 11:30:45;;;;;;;6.20;5.25;;;;;;;;;;5057073;28;20205;-70
2021/05/17 11:33:15;;;;;;;6.65;5.20;;;;;;;;;;5064764;28;20276;-71
2021/05/17 11:35:58;;;;;;;7.20;6.30;;;;;;;;;;5067298;28;20529;-71
2021/05/17 11:38:24;;;;;;;5.63;4.15;;;;;;;;;;5058203;28;20195;-70
2021/05/17 11:40:52;;;;;;;4.28;3.88;;;;;;;;;;5064950;28;20177;-71
2021/05/17 11:43:18;;;;;;;3.90;3.60;;;;;;;;;;5060504;28;20205;-71
2021/05/17 11:45:43;;;;;;;3.63;3.25;;;;;;;;;;5060388;28;20172;-71
2021/05/17 11:48:09;;;;;;;3.45;3.15;;;;;;;;;;5060878;28;20181;-70
2021/05/17 11:50:34;;;;;;;4.10;3.08;;;;;;;;;;5068017;28;20180;-70
2021/05/17 11:52:59;;;;;;;5.45;3.42;;;;;;;;;;5057220;28;20656;-71
2021/05/17 11:55:24;;;;;;;5.43;3.47;;;;;;;;;;5065450;28;20211;-71
2021/05/17 11:57:50;;;;;;;5.25;3.72;;;;;;;;;;5059762;28;20184;-70
2021/05/17 12:00:22;;;;;;;4.05;3.50;;;;;;;;;;5065510;28;20207;-71
2021/05/17 12:02:47;;;;;;;4.28;3.50;;;;;;;;;;5058501;28;20545;-70
2021/05/17 12:05:13;;;;;;;4.43;3.63;;;;;;;;;;5063153;28;20259;-71
2021/05/17 12:07:45;;;;;;;4.63;4.22;;;;;;;;;;5059091;28;20216;-71
2021/05/17 12:10:11;;;;;;;5.13;3.47;;;;;;;;;;5059167;28;20176;-69
2021/05/17 12:12:36;;;;;;;4.03;3.50;;;;;;;;;;5056331;28;20193;-71
2021/05/17 12:15:04;;;;;;;6.30;3.80;;;;;;;;;;5057436;28;20185;-70
2021/05/17 12:17:32;;;;;;;4.05;3.28;;;;;;;;;;5063970;28;20173;-70
2021/05/17 12:19:58;;;;;;;3.70;3.40;;;;;;;;;;5057039;28;20181;-70
2021/05/17 12:22:27;;;;;;;3.72;3.42;;;;;;;;;;5056883;28;20237;-70
2021/05/17 12:24:55;;;;;;;3.78;3.35;;;;;;;;;;5059911;28;20196;-70
2021/05/17 12:27:21;;;;;;;4.43;4.00;;;;;;;;;;5054898;28;20659;-71
2021/05/17 12:30:07;;;;;;;4.43;3.70;;;;;;;;;;5056897;28;20269;-70
2021/05/17 12:32:32;;;;;;;6.75;4.53;;;;;;;;;;5060182;28;20227;-71
2021/05/17 12:34:58;;;;;;;6.70;6.05;;;;;;;;;;5060641;28;20272;-71
2021/05/17 12:37:24;;;;;;;8.10;6.80;;;;;;;;;;5058606;28;20949;-70
2021/05/17 12:40:08;;;;;;;9.70;8.07;;;;;;;;;;5066516;28;20177;-71
2021/05/17 12:42:33;;;;;;;9.50;7.60;;;;;;;;;;5056182;28;20649;-70
2021/05/17 12:45:09;;;;;;;9.20;7.97;;;;;;;;;;5055308;28;20291;-71
2021/05/17 12:47:41;;;;;;;8.98;7.57;;;;;;;;;;5062742;28;20761;-71
2021/05/17 12:50:17;;;;;;;11.43;8.30;;;;;;;;;;5060847;28;20223;-71
2021/05/17 12:52:42;;;;;;;9.25;7.53;;;;;;;;;;5061743;28;20241;-72
2021/05/17 12:55:12;;;;;;;10.45;8.15;;;;;;;;;;5063757;28;20614;-69
2021/05/17 12:57:51;;;;;;;12.60;8.90;;;;;;;;;;5059578;28;20201;-70
2021/05/17 13:00:32;;;;;;;12.13;9.32;;;;;;;;;;5055943;28;20251;-70
2021/05/17 13:03:02;;;;;;;10.95;8.73;;;;;;;;;;5060583;28;20554;-69
2021/05/17 13:05:27;;;;;;;11.93;9.73;;;;;;;;;;5057053;28;20191;-70
2021/05/17 13:07:59;;;;;;;11.15;9.20;;;;;;;;;;5061257;28;20637;-70
2021/05/17 13:10:24;;;;;;;12.25;9.55;;;;;;;;;;5060267;28;20169;-70
2021/05/17 13:12:50;;;;;;;11.45;9.05;;;;;;;;;;5059309;28;20701;-70
2021/05/17 13:15:19;;;;;;;12.80;9.55;;;;;;;;;;5056885;28;20185;-70
2021/05/17 13:17:54;;;;;;;12.77;9.70;;;;;;;;;;5057906;28;20174;-70
2021/05/17 13:20:24;;;;;;;14.38;9.30;;;;;;;;;;5061241;28;20205;-68
2021/05/17 13:23:07;;;;;;;12.93;9.73;;;;;;;;;;5057350;28;20197;-70
2021/05/17 13:33:07;;;;;;;10.38;7.90;;;;;;;;;;5062245;28;20476;-71
2021/05/17 13:35:32;;;;;;;9.70;7.88;;;;;;;;;;5059767;28;20425;-70
2021/05/17 13:37:57;;;;;;;10.43;7.95;;;;;;;;;;5063027;28;20185;-71
2021/05/17 13:40:23;;;;;;;11.82;9.30;;;;;;;;;;5064744;28;20196;-71
2021/05/17 13:42:48;;;;;;;9.52;8.10;;;;;;;;;;5065074;28;20292;-69
2021/05/17 13:45:15;;;;;;;10.48;8.43;;;;;;;;;;5067803;28;20209;-69
2021/05/17 13:47:41;;;;;;;8.93;5.93;;;;;;;;;;5063946;28;20210;-70
2021/05/17 13:50:08;;;;;;;7.18;5.32;;;;;;;;;;5063596;28;20181;-69
2021/05/17 13:52:33;;;;;;;6.40;5.80;;;;;;;;;;5065727;28;20276;-70
2021/05/17 13:54:59;;;;;;;5.82;5.20;;;;;;;;;;5055381;28;20261;-70
2021/05/17 13:57:24;;;;;;;7.20;5.50;;;;;;;;;;5067225;28;20310;-70
2021/05/17 13:59:49;;;;;;;6.43;5.15;;;;;;;;;;5070360;28;20429;-69
2021/05/17 14:02:14;;;;;;;6.13;4.60;;;;;;;;;;5067985;28;20192;-71
2021/05/17 14:04:40;;;;;;;8.70;5.28;;;;;;;;;;5066385;28;20192;-71
2021/05/17 14:07:05;;;;;;;5.45;4.93;;;;;;;;;;5063444;28;20173;-70
2021/05/17 14:09:30;;;;;;;6.38;5.75;;;;;;;;;;5061008;28;20191;-71
2021/05/17 14:11:57;;;;;;;4.97;3.80;;;;;;;;;;5069954;28;20202;-72
2021/05/17 14:14:23;;;;;;;3.08;2.78;;;;;;;;;;5069836;28;20191;-70
2021/05/17 14:16:51;;;;;;;3.67;2.85;;;;;;;;;;5069516;28;20181;-71
2021/05/17 14:19:17;;;;;;;3.05;2.78;;;;;;;;;;5063324;28;20546;-69
2021/05/17 14:21:42;;;;;;;4.07;3.60;;;;;;;;;;5065370;28;20276;-71
2021/05/17 14:24:09;;;;;;;5.68;4.15;;;;;;;;;;5063785;28;20188;-70
2021/05/17 14:26:34;;;;;;;5.22;4.47;;;;;;;;;;5064087;28;20252;-70
2021/05/17 14:28:59;;;;;;;4.63;4.20;;;;;;;;;;5065187;28;20200;-70
2021/05/17 14:31:25;;;;;;;4.40;3.90;;;;;;;;;;5060577;28;20554;-70
2021/05/17 14:33:50;;;;;;;2.80;2.42;;;;;;;;;;5065618;28;20414;-69
2021/05/17 14:36:16;;;;;;;3.67;3.38;;;;;;;;;;5064470;28;20185;-70
2021/05/17 14:38:41;;;;;;;3.35;2.35;;;;;;;;;;5060376;28;20206;-70
2021/05/17 14:41:07;;;;;;;3.00;1.95;;;;;;;;;;5056940;28;20174;-69
2021/05/17 14:43:32;;;;;;;2.70;1.80;;;;;;;;;;5062673;28;20231;-71
2021/05/17 14:45:58;;;;;;;2.83;2.08;;;;;;;;;;5057771;28;20261;-70
2021/05/17 14:48:24;;;;;;;1.90;1.38;;;;;;;;;;5056717;28;20180;-71
2021/05/17 14:50:50;;;;;;;2.95;1.52;;;;;;;;;;5061370;28;20169;-70
2021/05/17 14:53:15;;;;;;;1.90;1.20;;;;;;;;;;5068041;28;20192;-69
2021/05/17 14:55:41;;;;;;;0.68;0.60;;;;;;;;;;5067638;28;20562;-71
2021/05/17 14:58:07;;;;;;;1.98;0.90;;;;;;;;;;5066165;28;20180;-72
2021/05/17 15:00:33;;;;;;;1.13;0.93;;;;;;;;;;5055121;28;20177;-70
2021/05/17 15:02:58;;;;;;;2.17;1.52;;;;;;;;;;5061438;28;20190;-69
2021/05/17 15:05:23;;;;;;;3.10;1.80;;;;;;;;;;5054576;28;20590;-71
2021/05/17 15:07:51;;;;;;;1.63;1.52;;;;;;;;;;5064108;28;20164;-69
2021/05/17 15:10:17;;;;;;;2.83;2.00;;;;;;;;;;5063041;28;20213;-70
2021/05/17 15:12:45;;;;;;;4.20;2.55;;;;;;;;;;5060738;28;20602;-72